createdAt,value
2018-06-20T00:02:46.766Z,19.00
2018-06-20T00:08:53.759Z,19.00
2018-06-20T00:14:59.586Z,19.00
2018-06-20T00:21:05.478Z,19.00
2018-06-20T00:27:11.200Z,18.90
2018-06-20T00:33:16.908Z,19.00
2018-06-20T00:39:23.028Z,18.90
2018-06-20T00:45:28.793Z,18.80
2018-06-20T00:51:34.518Z,18.80
2018-06-20T00:57:40.184Z,18.80
2018-06-20T01:03:46.097Z,18.70
2018-06-20T01:09:52.023Z,18.60
2018-06-20T01:15:57.925Z,18.60
2018-06-20T01:22:03.654Z,18.50
2018-06-20T01:28:09.546Z,18.50
2018-06-20T01:34:15.283Z,18.50
2018-06-20T01:40:21.156Z,18.40
2018-06-20T01:46:27.044Z,18.40
2018-06-20T01:52:32.733Z,18.20
2018-06-20T01:58:38.424Z,18.10
2018-06-20T02:04:44.463Z,17.80
2018-06-20T02:10:50.615Z,17.70
2018-06-20T02:16:56.413Z,17.50
2018-06-20T02:23:02.079Z,17.30
2018-06-20T02:29:07.735Z,17.00
2018-06-20T02:35:13.760Z,16.90
2018-06-20T02:41:20.340Z,16.70
2018-06-20T02:47:31.573Z,16.60
2018-06-20T02:53:37.215Z,16.50
2018-06-20T02:59:43.009Z,16.40
2018-06-20T03:05:48.746Z,16.30
2018-06-20T03:11:55.184Z,16.20
2018-06-20T03:18:00.868Z,16.10
2018-06-20T03:24:06.932Z,16.00
2018-06-20T03:30:12.815Z,15.90
2018-06-20T03:36:18.455Z,15.90
2018-06-20T03:42:25.083Z,15.90
2018-06-20T03:48:30.733Z,15.90
2018-06-20T03:54:36.651Z,15.90
2018-06-20T04:00:42.414Z,15.90
2018-06-20T04:06:48.033Z,15.90
2018-06-20T04:12:54.858Z,15.90
2018-06-20T04:19:00.606Z,16.10
2018-06-20T04:25:06.346Z,16.40
2018-06-20T04:31:12.134Z,16.70
2018-06-20T04:37:18.153Z,16.80
2018-06-20T04:43:24.756Z,17.00
2018-06-20T04:49:30.820Z,17.20
2018-06-20T04:55:37.044Z,17.30
2018-06-20T05:07:47.956Z,17.70
2018-06-20T05:13:53.847Z,17.80
2018-06-20T05:19:59.639Z,17.90
2018-06-20T05:26:05.451Z,18.00
2018-06-20T05:32:11.133Z,18.00
2018-06-20T05:38:17.272Z,18.20
2018-06-20T05:44:23.986Z,18.40
2018-06-20T05:50:30.339Z,18.70
2018-06-20T05:56:36.280Z,18.80
2018-06-20T06:02:42.030Z,19.00
2018-06-20T06:08:47.771Z,19.30
2018-06-20T06:14:53.748Z,19.50
2018-06-20T06:20:59.426Z,19.80
2018-06-20T06:27:05.178Z,20.10
2018-06-20T06:33:10.955Z,20.30
2018-06-20T06:39:16.639Z,20.60
2018-06-20T06:45:23.323Z,20.70
2018-06-20T06:51:29.083Z,20.60
2018-06-20T06:57:34.707Z,20.20
2018-06-20T07:03:40.325Z,20.00
2018-06-20T07:09:46.509Z,20.30
2018-06-20T07:15:53.768Z,20.40
2018-06-20T07:21:59.411Z,20.70
2018-06-20T07:28:05.184Z,21.40
2018-06-20T07:34:10.971Z,22.00
2018-06-20T07:40:16.604Z,22.30
2018-06-20T07:46:22.860Z,22.50
2018-06-20T07:52:29.279Z,23.10
2018-06-20T07:58:40.147Z,23.30
2018-06-20T08:04:51.198Z,23.40
2018-06-20T08:11:02.136Z,23.00
2018-06-20T08:17:13.261Z,23.10
2018-06-20T08:23:19.677Z,23.30
2018-06-20T08:29:25.855Z,23.80
2018-06-20T08:35:34.482Z,24.20
2018-06-20T08:41:40.127Z,24.40
2018-06-20T08:47:45.787Z,24.30
2018-06-20T08:53:52.337Z,24.60
2018-06-20T08:59:57.990Z,24.60
2018-06-20T09:06:08.853Z,24.70
2018-06-20T09:12:20.609Z,24.70
2018-06-20T09:18:31.968Z,25.00
2018-06-20T09:24:37.616Z,24.90
2018-06-20T09:30:43.273Z,24.80
2018-06-20T09:36:48.964Z,24.80
2018-06-20T09:42:55.280Z,25.40
2018-06-20T09:49:00.948Z,26.00
2018-06-20T09:55:06.612Z,26.00
2018-06-20T10:02:19.303Z,26.10
2018-06-20T10:08:30.590Z,26.40
2018-06-20T10:14:36.675Z,26.30
2018-06-20T10:20:42.615Z,26.40
2018-06-20T10:26:48.327Z,26.50
2018-06-20T10:32:54.562Z,26.60
2018-06-20T10:39:00.248Z,27.10
2018-06-20T10:45:11.207Z,27.50
2018-06-20T10:51:16.973Z,26.50
2018-06-20T10:57:27.764Z,26.20
2018-06-20T11:03:38.619Z,26.50
2018-06-20T11:09:49.575Z,25.80
2018-06-20T11:15:55.393Z,25.80
2018-06-20T11:22:01.099Z,26.00
2018-06-20T11:28:14.829Z,26.10
2018-06-20T11:34:20.612Z,26.50
2018-06-20T11:40:26.308Z,27.00
2018-06-20T11:46:37.289Z,26.80
2018-06-20T11:52:48.317Z,26.70
2018-06-20T11:59:00.139Z,27.70
2018-06-20T12:05:11.303Z,29.20
2018-06-20T12:11:22.237Z,29.80
2018-06-20T12:17:33.337Z,30.10
2018-06-20T12:23:44.287Z,29.10
2018-06-20T12:29:55.185Z,27.60
2018-06-20T12:36:06.087Z,28.50
2018-06-20T12:42:17.205Z,29.00
2018-06-20T12:48:23.096Z,29.60
2018-06-20T12:54:28.956Z,29.90
2018-06-20T13:00:34.762Z,29.30
2018-06-20T13:06:40.432Z,28.40
2018-06-20T13:12:46.105Z,29.00
2018-06-20T13:18:59.784Z,29.90
2018-06-20T13:25:05.773Z,29.80
2018-06-20T13:31:16.597Z,29.80
2018-06-20T13:37:27.683Z,30.10
2018-06-20T13:43:38.439Z,31.10
2018-06-20T13:49:44.776Z,31.40
2018-06-20T13:55:50.646Z,30.90
2018-06-20T14:01:56.927Z,30.90
2018-06-20T14:08:02.668Z,31.10
2018-06-20T14:14:08.783Z,30.70
2018-06-20T14:20:19.862Z,30.80
2018-06-20T14:26:34.806Z,31.10
2018-06-20T14:32:45.678Z,31.30
2018-06-20T14:38:57.163Z,32.10
2018-06-20T14:45:07.937Z,31.80
2018-06-20T14:51:14.217Z,30.90
2018-06-20T14:57:21.282Z,30.50
2018-06-20T15:03:27.159Z,30.90
2018-06-20T15:09:33.011Z,31.90
2018-06-20T15:15:38.651Z,31.30
2018-06-20T15:21:44.255Z,31.30
2018-06-20T15:27:55.301Z,31.20
2018-06-20T15:34:06.263Z,31.30
2018-06-20T15:40:12.785Z,31.30
2018-06-20T15:46:18.548Z,31.20
2018-06-20T15:52:24.975Z,30.90
2018-06-20T15:58:30.806Z,30.70
2018-06-20T16:04:36.537Z,30.60
2018-06-20T16:10:42.726Z,30.40
2018-06-20T16:16:48.560Z,30.60
2018-06-20T16:23:00.147Z,30.40
2018-06-20T16:29:10.959Z,30.20
2018-06-20T16:35:16.596Z,30.10
2018-06-20T16:41:24.184Z,30.70
2018-06-20T16:47:29.954Z,31.10
2018-06-20T16:53:35.619Z,31.70
2018-06-20T16:59:41.915Z,34.00
2018-06-20T17:05:47.683Z,34.90
2018-06-20T17:11:59.773Z,34.70
2018-06-20T17:18:11.157Z,34.50
2018-06-20T17:24:21.893Z,34.70
2018-06-20T17:30:28.076Z,34.60
2018-06-20T17:36:33.834Z,34.30
2018-06-20T17:42:40.302Z,34.00
2018-06-20T17:48:46.076Z,34.10
2018-06-20T17:54:53.430Z,33.50
2018-06-20T18:01:04.117Z,34.00
2018-06-20T18:07:15.041Z,33.60
2018-06-20T18:13:24.824Z,32.90
2018-06-20T18:19:30.535Z,32.90
2018-06-20T18:25:36.208Z,33.80
2018-06-20T18:31:41.832Z,34.80
2018-06-20T18:37:47.881Z,34.50
2018-06-20T18:43:55.209Z,34.30
2018-06-20T18:50:00.823Z,33.60
2018-06-20T18:56:06.877Z,32.70
2018-06-20T19:02:17.718Z,30.30
2018-06-20T19:08:28.787Z,28.60
2018-06-20T19:14:34.582Z,27.20
2018-06-20T19:20:40.228Z,26.30
2018-06-20T19:26:45.889Z,25.50
2018-06-20T19:32:51.639Z,24.80
2018-06-20T19:38:57.555Z,24.10
2018-06-20T19:45:03.612Z,23.60
2018-06-20T19:51:09.267Z,23.20
2018-06-20T19:57:14.994Z,23.00
2018-06-20T20:03:20.685Z,22.60
2018-06-20T20:09:26.531Z,22.40
2018-06-20T20:15:32.196Z,22.20
2018-06-20T20:21:37.987Z,22.10
2018-06-20T20:27:43.789Z,21.90
2018-06-20T20:33:49.787Z,21.80
2018-06-20T20:39:55.991Z,21.70
2018-06-20T20:46:01.697Z,21.60
2018-06-20T20:52:07.679Z,21.60
2018-06-20T20:58:13.305Z,21.40
2018-06-20T21:04:19.026Z,21.40
2018-06-20T21:10:24.848Z,21.40
2018-06-20T21:16:30.895Z,21.30
2018-06-20T21:22:36.620Z,21.10
2018-06-20T21:28:42.342Z,21.00
2018-06-20T21:34:48.118Z,20.90
2018-06-20T21:40:54.496Z,20.80
2018-06-20T21:47:00.252Z,20.70
2018-06-20T21:53:05.952Z,20.60
2018-06-20T21:59:11.693Z,20.60
2018-06-20T22:05:17.344Z,20.50
2018-06-20T22:11:23.943Z,20.30
2018-06-20T22:17:29.925Z,20.20
2018-06-20T22:23:35.656Z,20.20
2018-06-20T22:29:41.599Z,20.00
2018-06-20T22:35:47.384Z,19.80
2018-06-20T22:41:53.449Z,19.60
2018-06-20T22:47:59.136Z,19.40
2018-06-20T22:54:04.844Z,19.30
2018-06-20T23:00:10.654Z,19.10
2018-06-20T23:06:16.118Z,19.00
2018-06-20T23:12:22.057Z,18.90
2018-06-20T23:18:27.805Z,18.70
2018-06-20T23:24:33.482Z,18.40
2018-06-20T23:30:39.212Z,18.10
2018-06-20T23:36:44.987Z,18.00
2018-06-20T23:42:51.078Z,17.80
2018-06-20T23:48:57.024Z,17.70
2018-06-20T23:55:02.690Z,17.70
